| time (UTC) | temp C | wind direction | speed KPH | gust KPH | rain 1hr cm | rain 24hr cm | rain mn cm | humidity % | barometer mb |
| 20260906224048 | 37 | 135 | 4.8 | 4.8 | 0.00 | 0.00 | 0.00 | 42 | 1011.8 |
| 20260906223048 | 37 | 158 | 6.4 | 9.7 | 0.00 | 0.00 | 0.00 | 41 | 1011.9 |
| 20260906222046 | 37 | 128 | 4.8 | 9.7 | 0.00 | 0.00 | 0.00 | 41 | 1012.0 |
| 20260906221040 | 37 | 155 | 6.4 | 9.7 | 0.00 | 0.00 | 0.00 | 42 | 1012.1 |
| 20260906220036 | 37 | 146 | 4.8 | 8.0 | 0.00 | 0.00 | 0.00 | 41 | 1011.8 |
| 20260906215033 | 37 | 108 | 1.6 | 3.2 | 0.00 | 0.00 | 0.00 | 41 | 1011.9 |
| 20260906214033 | 37 | 95 | 4.8 | 4.8 | 0.00 | 0.00 | 0.00 | 43 | 1011.9 |
| 20260906213032 | 37 | 160 | 8.0 | 14.5 | 0.00 | 0.00 | 0.00 | 42 | 1012.0 |
| 20260906212027 | 37 | 126 | 3.2 | 3.2 | 0.00 | 0.00 | 0.00 | 43 | 1012.0 |
| 20260906211022 | 37 | 147 | 3.2 | 8.0 | 0.00 | 0.00 | 0.00 | 42 | 1012.4 |
| 20260906210017 | 37 | 188 | 1.6 | 3.2 | 0.00 | 0.00 | 0.00 | 41 | 1012.5 |
| 20260906205015 | 37 | 91 | 8.0 | 11.3 | 0.00 | 0.00 | 0.00 | 41 | 1012.8 |
| 20260906204015 | 37 | 117 | 3.2 | 3.2 | 0.00 | 0.00 | 0.00 | 43 | 1012.9 |
| 20260906203009 | 37 | 140 | 1.6 | 4.8 | 0.00 | 0.00 | 0.00 | 42 | 1013.0 |
| 20260906202007 | 37 | 151 | 3.2 | 4.8 | 0.00 | 0.00 | 0.00 | 43 | 1013.0 |
| 20260906201001 | 37 | 145 | 3.2 | 4.8 | 0.00 | 0.00 | 0.00 | 45 | 1013.3 |
| 20260906195957 | 37 | 145 | 4.8 | 8.0 | 0.00 | 0.00 | 0.00 | 45 | 1013.1 |
| 20260906194955 | 37 | 110 | 6.4 | 8.0 | 0.00 | 0.00 | 0.00 | 46 | 1013.7 |
| 20260906193952 | 37 | 69 | 11.3 | 14.5 | 0.00 | 0.00 | 0.00 | 44 | 1013.6 |
| 20260906192948 | 36 | 87 | 9.7 | 12.9 | 0.00 | 0.00 | 0.00 | 43 | 1013.5 |
| 20260906191948 | 36 | 161 | 6.4 | 11.3 | 0.00 | 0.00 | 0.00 | 45 | 1013.6 |
| 20260906190947 | 36 | 89 | 4.8 | 8.0 | 0.00 | 0.00 | 0.00 | 46 | 1013.8 |
| 20260906185948 | 36 | 83 | 8.0 | 11.3 | 0.00 | 0.00 | 0.00 | 46 | 1013.8 |
| 20260906184946 | 36 | 167 | 3.2 | 3.2 | 0.00 | 0.00 | 0.00 | 46 | 1013.9 |
| 20260906183942 | 36 | 132 | 4.8 | 8.0 | 0.00 | 0.00 | 0.00 | 47 | 1013.9 |
| 20260906182940 | 36 | 96 | 4.8 | 4.8 | 0.00 | 0.00 | 0.00 | 46 | 1014.4 |
| 20260906181937 | 36 | 74 | 6.4 | 11.3 | 0.00 | 0.00 | 0.00 | 47 | 1014.3 |
| 20260906180934 | 36 | 93 | 3.2 | 3.2 | 0.00 | 0.00 | 0.00 | 47 | 1014.5 |
| 20260906175932 | 35 | 90 | 11.3 | 12.9 | 0.00 | 0.00 | 0.00 | 49 | 1014.8 |
| 20260906174931 | 35 | 114 | 3.2 | 3.2 | 0.00 | 0.00 | 0.00 | 51 | 1014.7 |
| 20260906173927 | 34 | 141 | 1.6 | 1.6 | 0.00 | 0.00 | 0.00 | 53 | 1014.8 |
| 20260906172927 | 35 | 208 | 8.0 | 9.7 | 0.00 | 0.00 | 0.00 | 54 | 1015.1 |
| 20260906171924 | 35 | 123 | 1.6 | 1.6 | 0.00 | 0.00 | 0.00 | 56 | 1015.1 |
| 20260906170920 | 35 | 156 | 3.2 | 4.8 | 0.00 | 0.00 | 0.00 | 54 | 1015.3 |
| 20260906165919 | 35 | 149 | 1.6 | 1.6 | 0.00 | 0.00 | 0.00 | 54 | 1015.3 |
| 20260906164920 | 34 | 137 | 6.4 | 9.7 | 0.00 | 0.00 | 0.00 | 55 | 1015.4 |
| 20260906163915 | 35 | 132 | 6.4 | 9.7 | 0.00 | 0.00 | 0.00 | 55 | 1015.4 |
| 20260906162914 | 34 | 145 | 4.8 | 4.8 | 0.00 | 0.00 | 0.00 | 56 | 1015.6 |
| 20260906161914 | 33 | 155 | 1.6 | 3.2 | 0.00 | 0.00 | 0.00 | 59 | 1015.7 |
| 20260906160913 | 33 | 140 | 1.6 | 1.6 | 0.00 | 0.00 | 0.00 | 62 | 1015.4 |
| 20260906155910 | 32 | 158 | 4.8 | 4.8 | 0.00 | 0.00 | 0.00 | 63 | 1015.4 |
| 20260906154907 | 32 | 150 | 3.2 | 3.2 | 0.00 | 0.00 | 0.00 | 67 | 1015.6 |
| 20260906153906 | 32 | 147 | 1.6 | 3.2 | 0.00 | 0.00 | 0.00 | 67 | 1015.3 |
| 20260906152900 | 31 | 143 | 1.6 | 3.2 | 0.00 | 0.00 | 0.00 | 69 | 1015.3 |
| 20260906151859 | 30 | 142 | 0.0 | 1.6 | 0.00 | 0.00 | 0.00 | 72 | 1015.4 |
| 20260906150857 | 30 | 146 | 4.8 | 4.8 | 0.00 | 0.00 | 0.00 | 72 | 1015.3 |
| 20260906145851 | 30 | 143 | 3.2 | 4.8 | 0.00 | 0.00 | 0.00 | 74 | 1015.2 |
| 20260906144851 | 30 | 137 | 0.0 | 1.6 | 0.00 | 0.00 | 0.00 | 75 | 1015.4 |
| 20260906143846 | 30 | 138 | 4.8 | 4.8 | 0.00 | 0.00 | 0.00 | 75 | 1015.2 |
| 20260906142844 | 30 | 141 | 0.0 | 1.6 | 0.00 | 0.00 | 0.00 | 77 | 1015.4 |
| 20260906141838 | 29 | 145 | 1.6 | 1.6 | 0.00 | 0.00 | 0.00 | 78 | 1015.4 |
| 20260906140838 | 28 | 143 | 0.0 | 1.6 | 0.00 | 0.00 | 0.00 | 80 | 1015.2 |
| 20260906135836 | 28 | 140 | 0.0 | 1.6 | 0.00 | 0.00 | 0.00 | 81 | 1015.3 |
| 20260906134832 | 28 | 142 | 1.6 | 3.2 | 0.00 | 0.00 | 0.00 | 82 | 1015.0 |
| 20260906133828 | 28 | 143 | 1.6 | 3.2 | 0.00 | 0.00 | 0.00 | 83 | 1015.1 |
| 20260906132825 | 27 | 141 | 0.0 | 0.0 | 0.00 | 0.00 | 0.00 | 84 | 1015.3 |
| 20260906131822 | 27 | 144 | 1.6 | 1.6 | 0.00 | 0.00 | 0.00 | 85 | 1015.2 |
| 20260906130819 | 27 | 143 | 0.0 | 0.0 | 0.00 | 0.00 | 0.00 | 87 | 1015.2 |
| 20260906125817 | 26 | 143 | 0.0 | 0.0 | 0.00 | 0.00 | 0.00 | 88 | 1014.9 |
| 20260906124815 | 26 | 143 | 0.0 | 0.0 | 0.00 | 0.00 | 0.00 | 91 | 1015.0 |
| 20260906123810 | 25 | 144 | 0.0 | 0.0 | 0.00 | 0.00 | 0.00 | 92 | 1015.0 |
| 20260906122805 | 25 | 144 | 0.0 | 0.0 | 0.00 | 0.00 | 0.00 | 93 | 1014.7 |
| 20260906121803 | 25 | 145 | 0.0 | 0.0 | 0.00 | 0.00 | 0.00 | 93 | 1014.8 |
| 20260906120800 | 25 | 142 | 0.0 | 1.6 | 0.00 | 0.00 | 0.00 | 93 | 1014.6 |
| 20260906115758 | 25 | 145 | 0.0 | 0.0 | 0.00 | 0.00 | 0.00 | 93 | 1014.5 |
| 20260906114758 | 25 | 143 | 0.0 | 0.0 | 0.00 | 0.00 | 0.00 | 93 | 1014.5 |
| 20260906113755 | 25 | 143 | 0.0 | 0.0 | 0.00 | 0.00 | 0.00 | 93 | 1014.2 |
| 20260906112754 | 25 | 138 | 0.0 | 0.0 | 0.00 | 0.00 | 0.00 | 93 | 1014.2 |
| 20260906111750 | 25 | 136 | 0.0 | 0.0 | 0.00 | 0.00 | 0.00 | 92 | 1014.2 |
| 20260906110750 | 25 | 142 | 0.0 | 0.0 | 0.00 | 0.00 | 0.00 | 92 | 1014.2 |
| 20260906105745 | 25 | 142 | 0.0 | 0.0 | 0.00 | 0.00 | 0.00 | 92 | 1014.0 |
| 20260906104743 | 25 | 140 | 0.0 | 0.0 | 0.00 | 0.00 | 0.00 | 92 | 1014.3 |
| 20260906103739 | 25 | 142 | 0.0 | 0.0 | 0.00 | 0.00 | 0.00 | 91 | 1014.2 |
| 20260906102735 | 25 | 141 | 0.0 | 0.0 | 0.00 | 0.00 | 0.00 | 91 | 1014.1 |
| 20260906101736 | 25 | 142 | 0.0 | 0.0 | 0.00 | 0.00 | 0.00 | 90 | 1014.1 |
| 20260906100731 | 25 | 137 | 0.0 | 0.0 | 0.00 | 0.00 | 0.00 | 90 | 1013.9 |
| 20260906095726 | 25 | 146 | 0.0 | 0.0 | 0.00 | 0.00 | 0.00 | 89 | 1013.9 |
| 20260906094726 | 26 | 145 | 0.0 | 0.0 | 0.00 | 0.00 | 0.00 | 89 | 1013.7 |
| 20260906093724 | 26 | 135 | 0.0 | 0.0 | 0.00 | 0.00 | 0.00 | 88 | 1013.7 |
| 20260906092720 | 26 | 148 | 0.0 | 0.0 | 0.00 | 0.00 | 0.00 | 88 | 1013.5 |
| 20260906091716 | 26 | 152 | 0.0 | 1.6 | 0.00 | 0.00 | 0.00 | 87 | 1013.5 |
| 20260906090714 | 26 | 161 | 1.6 | 1.6 | 0.00 | 0.00 | 0.00 | 87 | 1013.4 |
| 20260906085713 | 26 | 147 | 0.0 | 0.0 | 0.00 | 0.00 | 0.00 | 87 | 1013.5 |
| 20260906084712 | 26 | 152 | 3.2 | 3.2 | 0.00 | 0.00 | 0.00 | 87 | 1013.4 |
| 20260906083707 | 26 | 145 | 0.0 | 0.0 | 0.00 | 0.00 | 0.00 | 87 | 1013.1 |
| 20260906082704 | 26 | 157 | 1.6 | 1.6 | 0.00 | 0.00 | 0.00 | 87 | 1013.2 |
| 20260906081701 | 26 | 159 | 1.6 | 1.6 | 0.00 | 0.00 | 0.00 | 87 | 1013.5 |
| 20260906080658 | 26 | 166 | 1.6 | 3.2 | 0.00 | 0.00 | 0.00 | 86 | 1013.2 |
| 20260906075654 | 26 | 158 | 0.0 | 0.0 | 0.00 | 0.00 | 0.00 | 86 | 1013.5 |
| 20260906074649 | 27 | 156 | 1.6 | 1.6 | 0.00 | 0.00 | 0.00 | 85 | 1013.2 |
| 20260906073649 | 27 | 164 | 1.6 | 1.6 | 0.00 | 0.00 | 0.00 | 84 | 1013.4 |
| 20260906072646 | 26 | 153 | 1.6 | 1.6 | 0.00 | 0.00 | 0.00 | 84 | 1013.5 |
| 20260906071644 | 26 | 154 | 0.0 | 1.6 | 0.00 | 0.00 | 0.00 | 85 | 1013.6 |
| 20260906070640 | 26 | 155 | 1.6 | 3.2 | 0.00 | 0.00 | 0.00 | 85 | 1013.5 |
| 20260906065635 | 26 | 147 | 0.0 | 0.0 | 0.00 | 0.00 | 0.00 | 84 | 1013.7 |
| 20260906064631 | 27 | 155 | 0.0 | 1.6 | 0.00 | 0.00 | 0.00 | 84 | 1013.6 |
| 20260906063627 | 27 | 148 | 0.0 | 0.0 | 0.00 | 0.00 | 0.00 | 83 | 1013.4 |
| 20260906062625 | 27 | 153 | 3.2 | 3.2 | 0.00 | 0.00 | 0.00 | 82 | 1013.7 |
| 20260906061625 | 27 | 146 | 1.6 | 1.6 | 0.00 | 0.00 | 0.00 | 81 | 1013.5 |
| 20260906060621 | 27 | 152 | 1.6 | 1.6 | 0.00 | 0.00 | 0.00 | 80 | 1013.6 |
| 20260906055620 | 28 | 148 | 0.0 | 0.0 | 0.00 | 0.00 | 0.00 | 78 | 1013.9 |
| 20260906054616 | 28 | 175 | 4.8 | 4.8 | 0.00 | 0.00 | 0.00 | 76 | 1014.0 |
| 20260906053613 | 28 | 185 | 3.2 | 3.2 | 0.00 | 0.00 | 0.00 | 76 | 1013.9 |
| 20260906052609 | 28 | 167 | 1.6 | 3.2 | 0.00 | 0.00 | 0.00 | 77 | 1013.6 |
| 20260906051608 | 28 | 149 | 1.6 | 3.2 | 0.00 | 0.00 | 0.00 | 77 | 1013.8 |
| 20260906050604 | 28 | 169 | 4.8 | 8.0 | 0.00 | 0.00 | 0.00 | 77 | 1013.7 |
| 20260906045603 | 28 | 150 | 1.6 | 3.2 | 0.00 | 0.00 | 0.00 | 78 | 1013.6 |
| 20260906044600 | 28 | 170 | 3.2 | 3.2 | 0.00 | 0.00 | 0.00 | 79 | 1013.4 |
| 20260906043557 | 28 | 149 | 0.0 | 0.0 | 0.00 | 0.00 | 0.00 | 78 | 1013.5 |
| 20260906042557 | 28 | 149 | 3.2 | 3.2 | 0.00 | 0.00 | 0.00 | 77 | 1013.6 |
| 20260906041554 | 28 | 172 | 3.2 | 3.2 | 0.00 | 0.00 | 0.00 | 77 | 1013.7 |
| 20260906040550 | 28 | 156 | 0.0 | 1.6 | 0.00 | 0.00 | 0.00 | 76 | 1013.6 |
| 20260906035546 | 28 | 171 | 3.2 | 3.2 | 0.00 | 0.00 | 0.00 | 76 | 1014.0 |
| 20260906034542 | 28 | 152 | 3.2 | 4.8 | 0.00 | 0.00 | 0.00 | 74 | 1013.8 |
| 20260906033538 | 29 | 171 | 3.2 | 3.2 | 0.00 | 0.00 | 0.00 | 73 | 1013.5 |
| 20260906032535 | 29 | 139 | 1.6 | 1.6 | 0.00 | 0.00 | 0.00 | 73 | 1013.7 |
| 20260906031531 | 29 | 148 | 1.6 | 1.6 | 0.00 | 0.00 | 0.00 | 72 | 1013.6 |
| 20260906030526 | 29 | 164 | 3.2 | 3.2 | 0.00 | 0.00 | 0.00 | 71 | 1013.5 |
| 20260906025526 | 29 | 151 | 1.6 | 1.6 | 0.00 | 0.00 | 0.00 | 70 | 1013.6 |
| 20260906024525 | 30 | 180 | 3.2 | 3.2 | 0.00 | 0.00 | 0.00 | 69 | 1013.5 |
| 20260906023521 | 30 | 141 | 1.6 | 3.2 | 0.00 | 0.00 | 0.00 | 68 | 1013.4 |
| 20260906022517 | 30 | 146 | 1.6 | 3.2 | 0.00 | 0.00 | 0.00 | 67 | 1013.3 |
| 20260906021514 | 30 | 162 | 1.6 | 3.2 | 0.00 | 0.00 | 0.00 | 67 | 1013.1 |
| 20260906020513 | 30 | 170 | 3.2 | 4.8 | 0.00 | 0.00 | 0.00 | 66 | 1013.0 |
| 20260906015512 | 30 | 152 | 4.8 | 4.8 | 0.00 | 0.00 | 0.00 | 65 | 1012.9 |
| 20260906014507 | 30 | 146 | 3.2 | 3.2 | 0.00 | 0.00 | 0.00 | 64 | 1012.9 |
| 20260906013503 | 31 | 145 | 6.4 | 9.7 | 0.00 | 0.00 | 0.00 | 62 | 1012.7 |
| 20260906012500 | 31 | 163 | 3.2 | 3.2 | 0.00 | 0.00 | 0.00 | 62 | 1012.4 |
| 20260906011455 | 31 | 168 | 4.8 | 4.8 | 0.00 | 0.00 | 0.00 | 61 | 1012.5 |
| 20260906010451 | 31 | 144 | 8.0 | 12.9 | 0.00 | 0.00 | 0.00 | 62 | 1012.1 |
| 20260906005447 | 32 | 162 | 6.4 | 8.0 | 0.00 | 0.00 | 0.00 | 60 | 1012.1 |
| 20260906004445 | 32 | 147 | 6.4 | 8.0 | 0.00 | 0.00 | 0.00 | 58 | 1012.2 |
| 20260906003441 | 33 | 125 | 6.4 | 9.7 | 0.00 | 0.00 | 0.00 | 54 | 1011.9 |
| 20260906002436 | 34 | 112 | 8.0 | 12.9 | 0.00 | 0.00 | 0.00 | 53 | 1012.0 |
| 20260906001433 | 36 | 156 | 1.6 | 3.2 | 0.00 | 0.00 | 0.00 | 49 | 1011.9 |
| 20260906000429 | 36 | 136 | 1.6 | 3.2 | 0.00 | 0.00 | 0.00 | 44 | 1011.6 |
| 20260905235424 | 37 | 141 | 0.0 | 1.6 | 0.00 | 0.00 | 0.00 | 42 | 1011.8 |
| 20260905234420 | 37 | 144 | 1.6 | 1.6 | 0.00 | 0.00 | 0.00 | 42 | 1011.3 |
| 20260905233416 | 37 | 149 | 0.0 | 0.0 | 0.00 | 0.00 | 0.00 | 43 | 1011.3 |
| 20260905232411 | 36 | 159 | 1.6 | 1.6 | 0.00 | 0.00 | 0.00 | 44 | 1011.4 |
| 20260905231408 | 37 | 195 | 3.2 | 3.2 | 0.00 | 0.00 | 0.00 | 43 | 1011.4 |
| 20260905230408 | 37 | 178 | 0.0 | 1.6 | 0.00 | 0.00 | 0.00 | 42 | 1011.4 |
| 20260905225408 | 37 | 202 | 3.2 | 3.2 | 0.00 | 0.00 | 0.00 | 42 | 1011.5 |